createdAt,value
2019-04-05T00:01:55.011Z,14.00
2019-04-05T00:04:23.414Z,14.13
2019-04-05T00:06:51.906Z,13.60
2019-04-05T00:09:20.319Z,13.60
2019-04-05T00:11:48.820Z,13.53
2019-04-05T00:14:17.264Z,14.23
2019-04-05T00:16:45.802Z,13.50
2019-04-05T00:19:14.210Z,10.72
2019-04-05T00:21:42.622Z,13.20
2019-04-05T00:24:11.054Z,12.37
2019-04-05T00:26:39.639Z,13.08
2019-04-05T00:29:08.062Z,13.32
2019-04-05T00:31:36.500Z,12.73
2019-04-05T00:34:04.924Z,12.15
2019-04-05T00:36:33.343Z,13.10
2019-04-05T00:39:01.755Z,12.70
2019-04-05T00:41:32.935Z,12.85
2019-04-05T00:44:00.334Z,13.45
2019-04-05T00:46:28.739Z,13.30
2019-04-05T00:48:57.162Z,11.70
2019-04-05T00:51:25.545Z,12.70
2019-04-05T00:53:53.977Z,12.35
2019-04-05T00:56:22.373Z,12.10
2019-04-05T00:58:50.795Z,11.83
2019-04-05T01:01:19.210Z,11.57
2019-04-05T01:03:47.702Z,12.63
2019-04-05T01:06:16.195Z,12.18
2019-04-05T01:08:44.658Z,12.85
2019-04-05T01:11:13.369Z,12.80
2019-04-05T01:13:42.055Z,13.90
2019-04-05T01:16:10.530Z,13.50
2019-04-05T01:18:38.999Z,12.85
2019-04-05T01:21:10.520Z,13.00
2019-04-05T01:23:39.077Z,13.43
2019-04-05T01:26:07.571Z,12.88
2019-04-05T01:28:36.018Z,13.75
2019-04-05T01:31:04.513Z,13.28
2019-04-05T01:33:32.946Z,13.75
2019-04-05T01:36:01.379Z,13.53
2019-04-05T01:38:29.870Z,13.10
2019-04-05T01:40:59.191Z,13.22
2019-04-05T01:43:27.751Z,13.75
2019-04-05T01:45:56.618Z,13.67
2019-04-05T01:48:25.117Z,14.25
2019-04-05T01:50:53.519Z,14.78
2019-04-05T01:53:21.951Z,14.05
2019-04-05T01:55:50.399Z,14.50
2019-04-05T01:58:18.810Z,14.60
2019-04-05T02:00:47.319Z,12.80
2019-04-05T02:03:16.077Z,13.93
2019-04-05T02:05:44.556Z,14.58
2019-04-05T02:08:13.041Z,13.90
2019-04-05T02:10:41.515Z,15.03
2019-04-05T02:13:10.007Z,14.20
2019-04-05T02:15:38.818Z,15.03
2019-04-05T02:18:07.315Z,14.20
2019-04-05T02:20:36.042Z,14.90
2019-04-05T02:23:04.527Z,15.58
2019-04-05T02:25:33.108Z,15.83
2019-04-05T02:28:01.610Z,14.47
2019-04-05T02:30:30.470Z,14.95
2019-04-05T02:32:58.955Z,14.53
2019-04-05T02:35:27.406Z,15.28
2019-04-05T02:37:55.898Z,16.10
2019-04-05T02:40:26.682Z,15.95
2019-04-05T02:42:57.522Z,15.30
2019-04-05T02:45:29.029Z,15.90
2019-04-05T02:48:00.533Z,15.63
2019-04-05T02:50:31.487Z,15.15
2019-04-05T02:53:02.990Z,16.62
2019-04-05T02:55:32.346Z,13.50
2019-04-05T02:58:03.388Z,14.70
2019-04-05T03:00:32.750Z,15.38
2019-04-05T03:03:03.472Z,13.90
2019-04-05T03:05:32.474Z,14.07
2019-04-05T03:08:01.074Z,14.80
2019-04-05T03:10:53.589Z,14.23
2019-04-05T03:13:26.894Z,15.18
2019-04-05T03:15:58.404Z,15.83
2019-04-05T03:20:58.686Z,15.08
2019-04-05T03:23:28.742Z,14.90
2019-04-05T03:26:00.085Z,14.83
2019-04-05T03:28:30.370Z,16.55
2019-04-05T03:30:59.228Z,15.95
2019-04-05T03:33:27.728Z,17.07
2019-04-05T03:35:56.145Z,16.12
2019-04-05T03:38:24.804Z,16.70
2019-04-05T03:40:53.264Z,15.50
2019-04-05T03:43:22.646Z,15.30
2019-04-05T03:45:51.093Z,15.55
2019-04-05T03:48:19.880Z,16.15
2019-04-05T03:50:48.307Z,15.55
2019-04-05T03:53:16.726Z,16.57
2019-04-05T03:55:46.122Z,15.95
2019-04-05T03:58:14.643Z,16.35
2019-04-05T04:00:43.516Z,16.45
2019-04-05T04:03:12.009Z,15.53
2019-04-05T04:05:40.445Z,15.68
2019-04-05T04:08:09.139Z,15.93
2019-04-05T04:10:37.552Z,15.48
2019-04-05T04:13:06.294Z,16.00
2019-04-05T04:15:35.293Z,16.00
2019-04-05T04:18:03.997Z,16.55
2019-04-05T04:20:38.975Z,16.15
2019-04-05T04:23:08.683Z,15.83
2019-04-05T04:25:38.734Z,14.68
2019-04-05T04:28:07.686Z,16.65
2019-04-05T04:30:36.979Z,15.40
2019-04-05T04:33:07.255Z,16.25
2019-04-05T04:35:36.075Z,16.93
2019-04-05T04:38:04.664Z,17.17
2019-04-05T04:40:33.160Z,16.65
2019-04-05T04:43:02.152Z,16.75
2019-04-05T04:45:32.402Z,16.57
2019-04-05T04:48:00.896Z,17.30
2019-04-05T04:50:30.053Z,15.88
2019-04-05T04:52:59.062Z,17.55
2019-04-05T04:55:27.614Z,15.40
2019-04-05T04:57:56.143Z,16.48
2019-04-05T05:00:24.710Z,15.72
2019-04-05T05:02:53.261Z,17.27
2019-04-05T05:05:22.250Z,17.02
2019-04-05T05:07:52.477Z,16.27
2019-04-05T05:10:21.350Z,16.13
2019-04-05T05:12:50.185Z,17.15
2019-04-05T05:15:20.576Z,15.72
2019-04-05T05:17:58.416Z,16.30
2019-04-05T05:20:19.703Z,17.03
2019-04-05T05:22:48.128Z,17.03
2019-04-05T05:25:16.898Z,18.20
2019-04-05T05:27:45.987Z,16.93
2019-04-05T05:30:15.262Z,17.92
2019-04-05T05:32:43.978Z,17.73
2019-04-05T05:35:12.666Z,18.48
2019-04-05T05:37:41.235Z,18.10
2019-04-05T05:40:10.611Z,17.70
2019-04-05T05:42:39.134Z,17.55
2019-04-05T05:45:09.727Z,16.97
2019-04-05T05:47:50.769Z,18.03
2019-04-05T05:50:08.792Z,17.30
2019-04-05T05:52:37.605Z,19.00
2019-04-05T05:55:06.729Z,18.60
2019-04-05T05:57:35.176Z,18.77
2019-04-05T06:00:05.598Z,19.10
2019-04-05T06:02:34.027Z,19.37
2019-04-05T06:05:02.440Z,18.50
2019-04-05T06:07:30.849Z,17.73
2019-04-05T06:10:00.854Z,17.30
2019-04-05T06:12:29.303Z,18.25
2019-04-05T06:14:57.793Z,17.50
2019-04-05T06:17:26.257Z,18.40
2019-04-05T06:19:54.682Z,17.35
2019-04-05T06:22:23.095Z,19.73
2019-04-05T06:24:51.530Z,18.07
2019-04-05T06:27:20.044Z,17.70
2019-04-05T06:29:48.531Z,18.27
2019-04-05T06:32:16.933Z,18.23
2019-04-05T06:34:45.351Z,18.50
2019-04-05T06:37:13.778Z,18.85
2019-04-05T06:39:42.210Z,19.10
2019-04-05T06:42:10.618Z,18.92
2019-04-05T06:44:39.713Z,18.35
2019-04-05T06:47:08.154Z,21.73
2019-04-05T06:49:36.560Z,17.67
2019-04-05T06:52:05.106Z,17.67
2019-04-05T06:54:33.572Z,18.52
2019-04-05T06:57:01.973Z,18.45
2019-04-05T06:59:30.465Z,17.37
2019-04-05T07:01:58.921Z,19.37
2019-04-05T07:04:27.377Z,18.02
2019-04-05T07:06:55.923Z,18.12
2019-04-05T07:09:24.344Z,17.35
2019-04-05T07:11:52.784Z,17.15
2019-04-05T07:14:21.360Z,18.20
2019-04-05T07:16:49.856Z,19.15
2019-04-05T07:19:18.310Z,17.55
2019-04-05T07:21:46.833Z,18.55
2019-04-05T07:24:15.283Z,18.17
2019-04-05T07:26:43.706Z,18.37
2019-04-05T07:29:12.122Z,18.65
2019-04-05T07:31:40.783Z,18.62
2019-04-05T07:34:09.258Z,18.92
2019-04-05T07:36:37.669Z,19.55
2019-04-05T07:39:06.985Z,18.50
2019-04-05T07:41:35.446Z,19.07
2019-04-05T07:44:03.862Z,19.10
2019-04-05T07:46:32.313Z,18.52
2019-04-05T07:49:01.002Z,18.42
2019-04-05T07:51:29.449Z,18.48
2019-04-05T07:53:57.997Z,19.70
2019-04-05T07:56:26.691Z,18.82
2019-04-05T07:58:55.104Z,18.95
2019-04-05T08:01:23.683Z,18.85
2019-04-05T08:03:52.165Z,18.17
2019-04-05T08:06:20.687Z,18.77
2019-04-05T08:09:02.400Z,18.10
2019-04-05T08:11:31.750Z,18.65
2019-04-05T08:14:02.110Z,18.55
2019-04-05T08:16:30.612Z,17.90
2019-04-05T08:18:59.091Z,17.32
2019-04-05T08:21:27.526Z,17.45
2019-04-05T08:23:55.934Z,18.53
2019-04-05T08:26:24.639Z,18.05
2019-04-05T08:28:53.181Z,18.05
2019-04-05T08:31:21.587Z,18.32
2019-04-05T08:33:50.085Z,16.83
2019-04-05T08:36:18.626Z,19.27
2019-04-05T08:38:47.019Z,17.45
2019-04-05T08:41:15.471Z,17.67
2019-04-05T08:43:43.876Z,19.65
2019-04-05T08:46:12.338Z,18.70
2019-04-05T08:48:40.766Z,17.65
2019-04-05T08:51:10.142Z,18.02
2019-04-05T08:53:38.995Z,16.23
2019-04-05T08:56:07.486Z,16.25
2019-04-05T08:58:36.114Z,15.45
2019-04-05T09:01:04.717Z,14.90
2019-04-05T09:03:33.159Z,12.65
2019-04-05T09:06:01.599Z,11.75
2019-04-05T09:08:30.046Z,11.75
2019-04-05T09:10:58.510Z,12.20
2019-04-05T09:13:26.949Z,14.10
2019-04-05T09:15:55.514Z,12.25
2019-04-05T09:18:24.701Z,13.78
2019-04-05T09:20:53.146Z,12.30
2019-04-05T09:23:21.558Z,12.93
2019-04-05T09:25:50.257Z,11.57
2019-04-05T09:28:18.690Z,11.40
2019-04-05T09:30:47.103Z,12.07
2019-04-05T09:33:15.559Z,12.45
2019-04-05T09:35:43.964Z,11.95
2019-04-05T09:38:12.414Z,12.28
2019-04-05T09:40:40.921Z,11.70
2019-04-05T09:43:09.348Z,11.97
2019-04-05T09:45:37.750Z,12.78
2019-04-05T09:48:06.514Z,12.58
2019-04-05T09:50:35.154Z,13.15
2019-04-05T09:53:03.739Z,12.93
2019-04-05T09:55:32.192Z,12.13
2019-04-05T09:58:00.689Z,13.15
2019-04-05T10:00:29.433Z,12.80
2019-04-05T10:02:57.875Z,12.93
2019-04-05T10:05:26.422Z,13.75
2019-04-05T10:07:55.851Z,13.13
2019-04-05T10:10:26.293Z,13.45
2019-04-05T10:12:54.773Z,13.38
2019-04-05T10:15:23.206Z,13.98
2019-04-05T10:17:51.616Z,14.53
2019-04-05T10:20:20.221Z,14.18
2019-04-05T10:22:48.687Z,12.33
2019-04-05T10:25:17.370Z,12.40
2019-04-05T10:27:45.814Z,13.48
2019-04-05T10:30:14.384Z,12.73
2019-04-05T10:32:45.845Z,12.37
2019-04-05T10:35:13.334Z,11.15
2019-04-05T10:37:41.769Z,12.43
2019-04-05T10:40:10.942Z,11.80
2019-04-05T10:42:39.451Z,11.18
2019-04-05T10:45:11.826Z,10.85
2019-04-05T10:47:40.248Z,11.48
2019-04-05T10:50:11.303Z,10.55
2019-04-05T10:52:39.805Z,10.65
2019-04-05T10:55:08.667Z,10.28
2019-04-05T10:57:37.224Z,9.38
2019-04-05T11:00:08.855Z,9.28
2019-04-05T11:05:05.462Z,8.98
2019-04-05T11:07:35.200Z,8.70
2019-04-05T11:10:06.090Z,8.78
2019-04-05T11:12:35.147Z,9.18
2019-04-05T11:15:05.605Z,8.50
2019-04-05T11:17:34.023Z,8.20
2019-04-05T11:20:06.824Z,8.53
2019-04-05T11:22:32.719Z,8.33
2019-04-05T11:25:01.125Z,7.95
2019-04-05T11:27:29.851Z,7.72
2019-04-05T11:29:58.299Z,8.50
2019-04-05T11:32:26.722Z,8.20
2019-04-05T11:34:55.162Z,7.80
2019-04-05T11:37:24.349Z,7.80
2019-04-05T11:39:53.159Z,8.85
2019-04-05T11:42:23.909Z,8.33
2019-04-05T11:44:53.887Z,7.80
2019-04-05T11:47:23.189Z,8.87
2019-04-05T11:49:54.986Z,8.48
2019-04-05T11:52:22.659Z,8.40
2019-04-05T11:54:51.107Z,8.88
2019-04-05T11:57:19.530Z,9.43
2019-04-05T11:59:48.775Z,8.13
2019-04-05T12:02:19.465Z,8.50
2019-04-05T12:04:47.869Z,9.03
2019-04-05T12:07:16.310Z,9.03
2019-04-05T12:09:45.967Z,9.03
2019-04-05T12:12:15.307Z,9.20
2019-04-05T12:14:43.772Z,9.40
2019-04-05T12:17:12.570Z,8.73
2019-04-05T12:19:40.992Z,9.73
2019-04-05T12:22:09.525Z,9.25
2019-04-05T12:24:38.002Z,9.33
2019-04-05T12:27:06.548Z,9.43
2019-04-05T12:29:34.990Z,10.03
2019-04-05T12:32:03.772Z,10.40
2019-04-05T12:34:32.188Z,9.48
2019-04-05T12:37:00.604Z,9.93
2019-04-05T12:39:29.024Z,9.75
2019-04-05T12:41:57.754Z,10.13
2019-04-05T12:44:26.244Z,11.25
2019-04-05T12:46:54.658Z,11.45
2019-04-05T12:49:23.501Z,10.03
2019-04-05T12:51:51.958Z,9.88
2019-04-05T12:54:20.705Z,10.63
2019-04-05T12:56:49.130Z,10.03
2019-04-05T12:59:17.552Z,11.15
2019-04-05T13:01:46.505Z,10.50
2019-04-05T13:04:15.275Z,10.28
2019-04-05T13:06:44.420Z,10.92
2019-04-05T13:09:13.440Z,10.85
2019-04-05T13:11:41.934Z,11.10
2019-04-05T13:14:10.407Z,11.38
2019-04-05T13:16:38.819Z,10.43
2019-04-05T13:19:07.276Z,11.00
2019-04-05T13:21:35.693Z,10.03
2019-04-05T13:24:07.050Z,10.18
2019-04-05T13:26:36.812Z,10.70
2019-04-05T13:29:04.894Z,10.60
2019-04-05T13:31:33.323Z,10.75
2019-04-05T13:34:01.803Z,10.60
2019-04-05T13:36:30.252Z,11.03
2019-04-05T13:39:00.405Z,10.50
2019-04-05T13:41:31.260Z,10.97
2019-04-05T13:44:01.217Z,10.00
2019-04-05T13:46:29.153Z,9.88
2019-04-05T13:48:58.016Z,10.38
2019-04-05T13:51:28.090Z,10.03
2019-04-05T13:53:56.567Z,10.25
2019-04-05T13:56:25.081Z,10.65
2019-04-05T13:58:53.547Z,10.08
2019-04-05T14:01:21.970Z,9.83
2019-04-05T14:03:50.770Z,10.50
2019-04-05T14:06:19.277Z,9.75
2019-04-05T14:08:47.728Z,10.33
2019-04-05T14:11:16.187Z,10.43
2019-04-05T14:13:44.602Z,10.00
2019-04-05T14:16:13.214Z,9.93
2019-04-05T14:18:45.608Z,11.97
2019-04-05T14:21:11.974Z,10.60
2019-04-05T14:23:40.423Z,11.43
2019-04-05T14:26:08.906Z,10.35
2019-04-05T14:28:37.341Z,10.48
2019-04-05T14:31:05.811Z,10.67
2019-04-05T14:33:34.237Z,10.63
2019-04-05T14:36:02.727Z,10.18
2019-04-05T14:38:31.518Z,10.78
2019-04-05T14:41:00.326Z,9.70
2019-04-05T14:43:28.755Z,9.93
2019-04-05T14:45:57.321Z,9.80
2019-04-05T14:48:27.680Z,10.28
2019-04-05T14:50:57.773Z,9.60
2019-04-05T14:53:26.442Z,9.48
2019-04-05T14:55:54.858Z,9.63
2019-04-05T14:58:23.287Z,9.83
2019-04-05T15:00:52.022Z,9.43
2019-04-05T15:03:20.435Z,10.08
2019-04-05T15:05:48.933Z,10.40
2019-04-05T15:08:20.320Z,9.58
2019-04-05T15:10:47.520Z,9.28
2019-04-05T15:13:15.933Z,9.68
2019-04-05T15:15:44.398Z,9.55
2019-04-05T15:18:12.854Z,10.50
2019-04-05T15:20:41.323Z,9.78
2019-04-05T15:23:14.085Z,10.50
2019-04-05T15:25:43.160Z,9.28
2019-04-05T15:28:11.768Z,10.38
2019-04-05T15:30:40.192Z,10.43
2019-04-05T15:33:08.775Z,11.27
2019-04-05T15:35:37.282Z,10.50
2019-04-05T15:38:05.726Z,10.00
2019-04-05T15:40:34.219Z,10.08
2019-04-05T15:43:02.681Z,10.00
2019-04-05T15:45:31.163Z,10.63
2019-04-05T15:47:59.665Z,10.10
2019-04-05T15:50:28.167Z,10.63
2019-04-05T15:52:56.751Z,11.18
2019-04-05T15:55:25.190Z,10.98
2019-04-05T15:57:53.644Z,11.15
2019-04-05T16:00:34.367Z,11.87
2019-04-05T16:03:03.175Z,11.80
2019-04-05T16:05:34.294Z,11.27
2019-04-05T16:08:02.820Z,11.25
2019-04-05T16:10:32.161Z,11.97
2019-04-05T16:13:00.633Z,11.68
2019-04-05T16:15:29.051Z,13.08
2019-04-05T16:17:57.466Z,11.88
2019-04-05T16:20:25.925Z,11.60
2019-04-05T16:22:54.362Z,13.32
2019-04-05T16:25:22.775Z,12.25
2019-04-05T16:27:51.230Z,11.90
2019-04-05T16:30:19.724Z,11.90
2019-04-05T16:32:48.168Z,12.85
2019-04-05T16:35:16.579Z,12.70
2019-04-05T16:37:45.086Z,13.53
2019-04-05T16:40:15.560Z,12.73
2019-04-05T16:42:43.995Z,13.95
2019-04-05T16:45:13.490Z,11.95
2019-04-05T16:47:42.391Z,12.85
2019-04-05T16:50:11.443Z,12.75
2019-04-05T16:52:45.091Z,13.38
2019-04-05T16:55:10.558Z,13.22
2019-04-05T16:57:39.262Z,12.78
2019-04-05T17:00:11.266Z,12.75
2019-04-05T17:02:41.287Z,12.30
2019-04-05T17:05:10.066Z,13.28
2019-04-05T17:07:38.585Z,13.40
2019-04-05T17:10:07.491Z,14.53
2019-04-05T17:12:35.933Z,14.25
2019-04-05T17:15:06.959Z,13.88
2019-04-05T17:17:35.411Z,14.13
2019-04-05T17:20:04.927Z,14.13
2019-04-05T17:22:33.748Z,15.10
2019-04-05T17:25:02.216Z,14.68
2019-04-05T17:27:30.808Z,13.60
2019-04-05T17:29:59.564Z,14.05
2019-04-05T17:32:28.000Z,14.03
2019-04-05T17:34:56.459Z,14.25
2019-04-05T17:37:26.662Z,14.20
2019-04-05T17:39:55.142Z,14.95
2019-04-05T17:42:23.582Z,14.87
2019-04-05T17:44:52.075Z,15.05
2019-04-05T17:47:20.524Z,14.60
2019-04-05T17:49:48.931Z,15.03
2019-04-05T17:52:17.975Z,15.70
2019-04-05T17:54:46.407Z,14.60
2019-04-05T17:57:14.958Z,13.75
2019-04-05T17:59:44.241Z,15.43
2019-04-05T18:02:12.970Z,14.45
2019-04-05T18:04:41.829Z,16.45
2019-04-05T18:07:10.333Z,14.75
2019-04-05T18:09:39.107Z,14.93
2019-04-05T18:12:07.822Z,16.15
2019-04-05T18:14:36.250Z,16.20
2019-04-05T18:17:05.275Z,16.45
2019-04-05T18:19:33.692Z,15.90
2019-04-05T18:22:02.136Z,16.10
2019-04-05T18:24:30.559Z,15.08
2019-04-05T18:26:58.998Z,16.10
2019-04-05T18:29:27.429Z,15.85
2019-04-05T18:31:55.895Z,16.75
2019-04-05T18:34:24.325Z,16.17
2019-04-05T18:36:52.745Z,16.87
2019-04-05T18:39:21.171Z,15.88
2019-04-05T18:41:49.621Z,16.75
2019-04-05T18:44:18.095Z,17.25
2019-04-05T18:49:20.564Z,16.80
2019-04-05T18:51:49.013Z,17.40
2019-04-05T18:54:17.426Z,16.52
2019-04-05T18:56:45.851Z,16.32
2019-04-05T18:59:14.294Z,16.77
2019-04-05T19:01:42.718Z,15.72
2019-04-05T19:04:11.121Z,16.20
2019-04-05T19:06:39.547Z,16.85
2019-04-05T19:09:08.299Z,16.65
2019-04-05T19:11:36.714Z,16.70
2019-04-05T19:14:05.385Z,15.03
2019-04-05T19:16:33.843Z,16.03
2019-04-05T19:19:02.392Z,17.00
2019-04-05T19:21:30.814Z,16.27
2019-04-05T19:23:59.476Z,16.23
2019-04-05T19:26:28.086Z,17.05
2019-04-05T19:28:56.551Z,15.50
2019-04-05T19:48:56.113Z,16.97
2019-04-05T19:51:24.525Z,17.25
2019-04-05T19:54:00.831Z,16.30
2019-04-05T19:56:23.102Z,16.50
2019-04-05T19:58:51.516Z,16.70
2019-04-05T20:01:19.928Z,15.93
2019-04-05T20:03:48.362Z,16.82
2019-04-05T20:06:16.801Z,17.50
2019-04-05T20:08:45.222Z,17.17
2019-04-05T20:11:13.707Z,16.73
2019-04-05T20:13:42.134Z,16.87
2019-04-05T20:16:10.554Z,15.93
2019-04-05T20:18:38.965Z,17.33
2019-04-05T20:21:07.370Z,17.17
2019-04-05T20:23:47.503Z,17.52
2019-04-05T20:26:09.872Z,17.05
2019-04-05T20:28:38.281Z,14.93
2019-04-05T20:31:06.699Z,16.97
2019-04-05T20:33:35.115Z,17.57
2019-04-05T20:36:03.539Z,16.00
2019-04-05T20:38:32.045Z,16.17
2019-04-05T20:41:00.453Z,16.27
2019-04-05T20:43:28.893Z,15.28
2019-04-05T20:45:57.389Z,16.45
2019-04-05T20:48:25.809Z,15.28
2019-04-05T20:50:54.236Z,16.97
2019-04-05T20:53:22.656Z,14.93
2019-04-05T20:55:51.085Z,16.65
2019-04-05T20:58:19.524Z,15.30
2019-04-05T21:00:48.007Z,15.78
2019-04-05T21:03:16.483Z,15.80
2019-04-05T21:05:44.941Z,16.55
2019-04-05T21:08:13.437Z,16.50
2019-04-05T21:10:41.862Z,16.10
2019-04-05T21:13:10.275Z,16.75
2019-04-05T21:15:38.711Z,17.15
2019-04-05T21:18:07.119Z,17.27
2019-04-05T21:20:35.546Z,16.40
2019-04-05T21:23:03.991Z,15.45
2019-04-05T21:25:32.695Z,16.05
2019-04-05T21:28:01.205Z,15.30
2019-04-05T21:30:29.633Z,16.93
2019-04-05T21:32:58.050Z,15.63
2019-04-05T21:35:26.601Z,14.10
2019-04-05T21:37:55.067Z,15.80
2019-04-05T21:40:23.512Z,15.40
2019-04-05T21:42:51.917Z,14.33
2019-04-05T21:45:20.329Z,14.77
2019-04-05T21:47:48.993Z,15.20
2019-04-05T21:50:17.406Z,15.53
2019-04-05T21:52:45.896Z,15.72
2019-04-05T21:55:15.114Z,15.18
2019-04-05T21:57:43.620Z,15.50
2019-04-05T22:00:24.232Z,15.18
2019-04-05T22:02:52.724Z,14.03
2019-04-05T22:05:21.160Z,13.98
2019-04-05T22:07:51.544Z,15.55
2019-04-05T22:10:19.768Z,14.50
2019-04-05T22:12:48.218Z,15.10
2019-04-05T22:15:16.760Z,15.58
2019-04-05T22:17:45.327Z,16.82
2019-04-05T22:20:13.852Z,16.85
2019-04-05T22:22:42.428Z,15.83
2019-04-05T22:25:11.015Z,16.27
2019-04-05T22:27:39.470Z,15.60
2019-04-05T22:30:07.989Z,14.55
2019-04-05T22:32:36.433Z,14.73
2019-04-05T22:35:05.397Z,15.88
2019-04-05T22:37:33.825Z,15.18
2019-04-05T22:40:02.247Z,14.75
2019-04-05T22:42:30.645Z,14.38
2019-04-05T22:44:59.184Z,16.00
2019-04-05T22:47:27.692Z,14.67
2019-04-05T22:49:58.761Z,16.60
2019-04-05T22:52:26.854Z,17.70
2019-04-05T22:54:56.556Z,15.95
2019-04-05T22:57:25.274Z,17.12
2019-04-05T22:59:53.859Z,17.42
2019-04-05T23:02:22.548Z,17.40
2019-04-05T23:04:51.022Z,17.23
2019-04-05T23:07:19.430Z,16.60
2019-04-05T23:09:48.081Z,15.18
2019-04-05T23:12:16.514Z,15.32
2019-04-05T23:14:44.984Z,16.30
2019-04-05T23:17:13.410Z,16.97
2019-04-05T23:19:41.838Z,18.15
2019-04-05T23:22:10.261Z,17.45
2019-04-05T23:24:38.669Z,16.30
2019-04-05T23:27:07.098Z,15.95
2019-04-05T23:29:35.726Z,14.98
2019-04-05T23:32:04.591Z,14.47
2019-04-05T23:34:33.032Z,16.50
2019-04-05T23:37:01.432Z,15.60
2019-04-05T23:39:29.882Z,15.63
2019-04-05T23:41:58.371Z,15.20
2019-04-05T23:44:26.781Z,15.38
2019-04-05T23:46:55.361Z,16.07
2019-04-05T23:49:23.788Z,17.25
2019-04-05T23:51:52.278Z,16.45
2019-04-05T23:54:20.693Z,15.93
2019-04-05T23:56:49.119Z,15.30
2019-04-05T23:59:17.547Z,15.48
